createdAt,value
2017-12-02T00:01:41.170Z,32.57
2017-12-02T00:04:16.132Z,31.07
2017-12-02T00:06:51.344Z,33.23
2017-12-02T00:09:26.392Z,37.37
2017-12-02T00:12:01.412Z,35.13
2017-12-02T00:14:35.920Z,28.23
2017-12-02T00:17:11.257Z,31.60
2017-12-02T00:19:45.825Z,32.97
2017-12-02T00:22:20.885Z,30.07
2017-12-02T00:24:55.372Z,33.97
2017-12-02T00:27:29.936Z,38.07
2017-12-02T00:30:05.305Z,38.07
2017-12-02T00:32:40.172Z,38.53
2017-12-02T00:35:14.976Z,34.90
2017-12-02T00:37:50.206Z,35.80
2017-12-02T00:40:24.579Z,32.87
2017-12-02T00:42:59.861Z,38.47
2017-12-02T00:45:34.577Z,35.80
2017-12-02T00:48:09.632Z,35.30
2017-12-02T00:50:44.878Z,37.37
2017-12-02T00:53:19.848Z,34.00
2017-12-02T00:55:54.816Z,34.67
2017-12-02T00:58:29.719Z,36.07
2017-12-02T01:01:04.902Z,37.50
2017-12-02T01:03:39.927Z,35.97
2017-12-02T01:06:15.228Z,40.77
2017-12-02T01:08:50.156Z,36.87
2017-12-02T01:11:25.339Z,42.70
2017-12-02T01:13:59.648Z,41.53
2017-12-02T01:16:34.724Z,35.90
2017-12-02T01:19:10.040Z,39.17
2017-12-02T01:21:45.237Z,36.97
2017-12-02T01:24:19.498Z,37.37
2017-12-02T01:26:53.892Z,39.07
2017-12-02T01:29:29.254Z,38.40
2017-12-02T01:32:04.324Z,46.43
2017-12-02T01:34:39.329Z,42.07
2017-12-02T01:37:14.360Z,40.53
2017-12-02T01:39:49.644Z,37.43
2017-12-02T01:42:24.745Z,44.43
2017-12-02T01:44:59.665Z,39.43
2017-12-02T01:47:34.802Z,33.00
2017-12-02T01:50:09.692Z,44.10
2017-12-02T01:52:44.704Z,41.60
2017-12-02T01:55:19.733Z,41.00
2017-12-02T01:57:54.358Z,36.80
2017-12-02T02:00:29.056Z,40.87
2017-12-02T02:03:03.492Z,44.13
2017-12-02T02:05:38.562Z,42.37
2017-12-02T02:08:13.529Z,46.43
2017-12-02T02:10:48.500Z,43.17
2017-12-02T02:13:23.939Z,43.73
2017-12-02T02:15:58.861Z,38.50
2017-12-02T02:18:34.080Z,40.10
2017-12-02T02:21:09.316Z,41.57
2017-12-02T02:23:43.985Z,41.77
2017-12-02T02:26:19.145Z,40.60
2017-12-02T02:28:54.477Z,37.57
2017-12-02T02:31:29.514Z,39.03
2017-12-02T02:34:04.676Z,37.73
2017-12-02T02:36:39.510Z,40.90
2017-12-02T02:39:14.017Z,40.53
2017-12-02T02:41:49.120Z,37.00
2017-12-02T02:44:24.192Z,36.93
2017-12-02T02:46:59.234Z,39.13
2017-12-02T02:49:34.155Z,42.27
2017-12-02T02:52:09.092Z,41.27
2017-12-02T02:54:43.993Z,41.20
2017-12-02T02:57:18.825Z,38.57
2017-12-02T02:59:53.554Z,40.13
2017-12-02T03:02:28.575Z,38.97
2017-12-02T03:05:03.588Z,40.53
2017-12-02T03:07:38.777Z,37.77
2017-12-02T03:10:13.298Z,38.70
2017-12-02T03:12:48.056Z,38.10
2017-12-02T03:15:23.022Z,37.23
2017-12-02T03:17:57.800Z,35.10
2017-12-02T03:20:32.848Z,40.33
2017-12-02T03:23:07.709Z,31.20
2017-12-02T03:25:42.708Z,38.23
2017-12-02T03:28:17.612Z,36.80
2017-12-02T03:30:52.543Z,39.53
2017-12-02T03:33:27.492Z,43.63
2017-12-02T03:36:02.000Z,39.07
2017-12-02T03:38:36.648Z,37.53
2017-12-02T03:41:11.393Z,35.20
2017-12-02T03:43:45.733Z,36.77
2017-12-02T03:46:19.891Z,40.87
2017-12-02T03:48:54.729Z,38.90
2017-12-02T03:51:29.437Z,34.50
2017-12-02T03:54:04.389Z,35.37
2017-12-02T03:56:39.533Z,34.30
2017-12-02T03:59:14.107Z,29.73
2017-12-02T04:01:48.917Z,32.07
2017-12-02T04:04:23.748Z,32.53
2017-12-02T04:06:58.376Z,30.57
2017-12-02T04:09:33.277Z,29.97
2017-12-02T04:12:08.131Z,35.90
2017-12-02T04:14:42.631Z,39.70
2017-12-02T04:17:17.188Z,30.83
2017-12-02T04:19:51.984Z,34.17
2017-12-02T04:22:26.648Z,36.33
2017-12-02T04:25:01.245Z,35.57
2017-12-02T04:27:36.084Z,36.30
2017-12-02T04:30:10.709Z,36.50
2017-12-02T04:32:45.676Z,35.50
2017-12-02T04:35:19.869Z,34.93
2017-12-02T04:37:54.656Z,35.93
2017-12-02T04:40:29.199Z,29.40
2017-12-02T04:43:04.308Z,32.10
2017-12-02T04:45:39.372Z,33.27
2017-12-02T04:48:13.673Z,33.10
2017-12-02T04:50:48.796Z,35.27
2017-12-02T04:53:23.748Z,32.90
2017-12-02T04:55:58.800Z,42.13
2017-12-02T04:58:34.142Z,34.17
2017-12-02T05:01:08.716Z,37.67
2017-12-02T05:03:43.594Z,37.30
2017-12-02T05:06:18.516Z,38.17
2017-12-02T05:08:53.243Z,35.27
2017-12-02T05:11:27.976Z,34.87
2017-12-02T05:14:02.772Z,34.13
2017-12-02T05:16:37.041Z,40.63
2017-12-02T05:19:11.861Z,37.63
2017-12-02T05:21:46.433Z,31.13
2017-12-02T05:24:21.340Z,37.20
2017-12-02T05:26:56.052Z,34.47
2017-12-02T05:29:30.770Z,32.73
2017-12-02T05:32:05.509Z,36.20
2017-12-02T05:34:40.328Z,30.40
2017-12-02T05:37:14.658Z,40.73
2017-12-02T05:39:49.507Z,34.97
2017-12-02T05:42:23.825Z,37.87
2017-12-02T05:44:58.584Z,36.33
2017-12-02T05:47:33.493Z,36.20
2017-12-02T05:50:08.058Z,35.43
2017-12-02T05:52:42.948Z,34.20
2017-12-02T05:55:17.652Z,35.57
2017-12-02T05:57:52.816Z,31.73
2017-12-02T06:00:27.728Z,26.57
2017-12-02T06:03:01.989Z,27.57
2017-12-02T06:05:36.240Z,29.60
2017-12-02T06:08:11.199Z,34.60
2017-12-02T06:10:46.026Z,31.17
2017-12-02T06:13:20.609Z,29.30
2017-12-02T06:15:54.517Z,28.50
2017-12-02T06:18:29.221Z,29.53
2017-12-02T06:21:03.689Z,23.67
2017-12-02T06:23:38.765Z,25.87
2017-12-02T06:26:13.454Z,32.03
2017-12-02T06:28:48.020Z,29.00
2017-12-02T06:31:22.645Z,28.20
2017-12-02T06:33:57.573Z,23.47
2017-12-02T06:36:32.605Z,27.53
2017-12-02T06:39:07.040Z,27.10
2017-12-02T06:41:42.380Z,28.53
2017-12-02T06:44:16.320Z,25.63
2017-12-02T06:46:51.002Z,28.70
2017-12-02T06:49:25.616Z,23.77
2017-12-02T06:52:00.463Z,24.57
2017-12-02T06:54:35.120Z,25.13
2017-12-02T06:57:09.328Z,27.30
2017-12-02T06:59:44.412Z,27.50
2017-12-02T07:02:19.336Z,25.63
2017-12-02T07:04:53.932Z,30.97
2017-12-02T07:07:28.641Z,25.90
2017-12-02T07:10:03.546Z,27.73
2017-12-02T07:12:38.413Z,29.97
2017-12-02T07:15:13.203Z,25.93
2017-12-02T07:17:47.248Z,24.63
2017-12-02T07:20:22.072Z,25.90
2017-12-02T07:22:56.103Z,23.70
2017-12-02T07:25:31.127Z,30.70
2017-12-02T07:28:05.784Z,26.03
2017-12-02T07:30:40.605Z,24.10
2017-12-02T07:33:15.008Z,24.03
2017-12-02T07:35:49.804Z,25.73
2017-12-02T07:38:24.775Z,28.17
2017-12-02T07:40:59.495Z,29.23
2017-12-02T07:43:34.226Z,29.20
2017-12-02T07:46:08.698Z,25.47
2017-12-02T07:48:43.545Z,25.53
2017-12-02T07:51:18.014Z,22.40
2017-12-02T07:53:52.684Z,28.27
2017-12-02T07:56:27.540Z,24.20
2017-12-02T07:59:01.812Z,29.17
2017-12-02T08:01:36.592Z,26.83
2017-12-02T08:04:11.443Z,25.60
2017-12-02T08:06:46.193Z,21.70
2017-12-02T08:09:21.000Z,26.97
2017-12-02T08:11:55.901Z,27.03
2017-12-02T08:14:30.784Z,28.43
2017-12-02T08:17:05.565Z,33.93
2017-12-02T08:19:40.632Z,29.80
2017-12-02T08:22:16.860Z,33.07
2017-12-02T08:24:51.345Z,27.57
2017-12-02T08:27:25.425Z,28.60
2017-12-02T08:29:59.956Z,25.57
2017-12-02T08:32:34.762Z,21.10
2017-12-02T08:35:09.451Z,26.77
2017-12-02T08:37:44.358Z,27.43
2017-12-02T08:40:19.360Z,27.40
2017-12-02T08:42:54.420Z,23.23
2017-12-02T08:45:29.141Z,26.50
2017-12-02T08:48:04.051Z,24.37
2017-12-02T08:50:38.816Z,26.53
2017-12-02T08:53:13.694Z,26.93
2017-12-02T08:55:48.532Z,28.40
2017-12-02T08:58:23.188Z,21.73
2017-12-02T09:00:57.916Z,32.40
2017-12-02T09:03:32.500Z,26.33
2017-12-02T09:06:07.124Z,25.00
2017-12-02T09:08:41.856Z,29.30
2017-12-02T09:11:15.977Z,26.80
2017-12-02T09:13:51.053Z,31.90
2017-12-02T09:16:25.466Z,27.77
2017-12-02T09:19:00.488Z,32.30
2017-12-02T09:21:34.784Z,28.90
2017-12-02T09:24:09.108Z,25.87
2017-12-02T09:26:43.978Z,26.70
2017-12-02T09:29:18.792Z,27.20
2017-12-02T09:31:53.801Z,31.50
2017-12-02T09:34:28.648Z,25.60
2017-12-02T09:37:03.228Z,28.03
2017-12-02T09:39:38.111Z,27.93
2017-12-02T09:42:13.165Z,31.30
2017-12-02T09:44:47.435Z,26.70
2017-12-02T09:47:21.584Z,26.53
2017-12-02T09:49:56.334Z,24.57
2017-12-02T09:52:31.157Z,28.97
2017-12-02T09:55:05.248Z,34.17
2017-12-02T09:57:40.236Z,26.63
2017-12-02T10:00:15.141Z,24.63
2017-12-02T10:02:50.108Z,27.70
2017-12-02T10:05:24.895Z,23.37
2017-12-02T10:07:59.126Z,25.37
2017-12-02T10:10:33.711Z,22.80
2017-12-02T10:13:07.897Z,29.47
2017-12-02T10:15:42.477Z,27.53
2017-12-02T10:18:17.107Z,29.47
2017-12-02T10:20:51.925Z,33.67
2017-12-02T10:23:26.509Z,47.83
2017-12-02T10:26:01.211Z,42.87
2017-12-02T10:28:35.524Z,37.20
2017-12-02T10:31:10.032Z,28.13
2017-12-02T10:33:44.731Z,39.00
2017-12-02T10:36:19.400Z,37.63
2017-12-02T10:38:53.480Z,26.07
2017-12-02T10:41:28.456Z,32.70
2017-12-02T10:44:03.484Z,29.80
2017-12-02T10:46:38.460Z,25.00
2017-12-02T10:49:12.541Z,25.73
2017-12-02T10:51:47.344Z,30.60
2017-12-02T10:54:22.296Z,28.77
2017-12-02T10:56:56.900Z,32.77
2017-12-02T10:59:31.648Z,28.30
2017-12-02T11:02:06.277Z,31.07
2017-12-02T11:04:41.109Z,27.93
2017-12-02T11:07:16.322Z,28.03
2017-12-02T11:09:51.397Z,29.20
2017-12-02T11:12:26.269Z,34.80
2017-12-02T11:15:01.449Z,32.47
2017-12-02T11:17:36.433Z,28.07
2017-12-02T11:20:11.024Z,35.47
2017-12-02T11:22:46.028Z,33.10
2017-12-02T11:25:20.984Z,37.97
2017-12-02T11:27:55.992Z,31.60
2017-12-02T11:30:30.761Z,27.80
2017-12-02T11:33:05.472Z,47.57
2017-12-02T11:35:40.001Z,40.43
2017-12-02T11:38:14.301Z,34.00
2017-12-02T11:40:49.129Z,35.40
2017-12-02T11:43:23.976Z,36.40
2017-12-02T11:45:59.241Z,32.33
2017-12-02T11:48:33.863Z,27.30
2017-12-02T11:51:09.024Z,30.57
2017-12-02T11:53:43.837Z,25.10
2017-12-02T11:56:18.849Z,35.53
2017-12-02T11:58:53.482Z,37.97
2017-12-02T12:01:28.080Z,32.67
2017-12-02T12:04:03.344Z,40.47
2017-12-02T12:06:37.788Z,23.27
2017-12-02T12:09:13.037Z,36.77
2017-12-02T12:11:47.784Z,44.50
2017-12-02T12:14:22.768Z,32.17
2017-12-02T12:16:57.496Z,24.27
2017-12-02T12:19:32.176Z,32.43
2017-12-02T12:22:07.073Z,29.67
2017-12-02T12:24:42.034Z,37.80
2017-12-02T12:27:17.252Z,47.17
2017-12-02T12:29:51.988Z,29.13
2017-12-02T12:32:27.056Z,27.47
2017-12-02T12:35:02.146Z,26.00
2017-12-02T12:37:36.861Z,33.73
2017-12-02T12:40:11.868Z,24.00
2017-12-02T12:42:46.570Z,23.37
2017-12-02T12:45:21.350Z,26.40
2017-12-02T12:47:56.276Z,27.93
2017-12-02T12:50:31.031Z,21.07
2017-12-02T12:53:05.904Z,24.13
2017-12-02T12:55:40.860Z,25.23
2017-12-02T12:58:15.788Z,25.50
2017-12-02T13:00:50.712Z,24.20
2017-12-02T13:03:25.468Z,26.90
2017-12-02T13:06:00.496Z,26.70
2017-12-02T13:08:35.700Z,26.17
2017-12-02T13:11:10.708Z,26.93
2017-12-02T13:13:45.113Z,22.93
2017-12-02T13:16:19.565Z,23.80
2017-12-02T13:18:54.362Z,24.13
2017-12-02T13:21:29.449Z,27.17
2017-12-02T13:24:04.668Z,20.30
2017-12-02T13:26:40.045Z,23.40
2017-12-02T13:29:14.581Z,21.50
2017-12-02T13:31:49.833Z,18.83
2017-12-02T13:34:25.232Z,23.23
2017-12-02T13:37:00.536Z,22.50
2017-12-02T13:39:35.788Z,27.27
2017-12-02T13:42:10.216Z,23.10
2017-12-02T13:44:45.160Z,21.90
2017-12-02T13:47:20.185Z,25.17
2017-12-02T13:49:55.203Z,21.30
2017-12-02T13:52:30.044Z,21.00
2017-12-02T13:55:05.012Z,23.93
2017-12-02T13:57:39.936Z,25.93
2017-12-02T14:00:14.964Z,17.47
2017-12-02T14:02:50.025Z,23.67
2017-12-02T14:05:24.758Z,26.67
2017-12-02T14:07:59.812Z,29.03
2017-12-02T14:10:34.631Z,25.20
2017-12-02T14:13:09.086Z,24.27
2017-12-02T14:15:44.408Z,33.50
2017-12-02T14:18:19.236Z,25.23
2017-12-02T14:20:54.556Z,28.20
2017-12-02T14:23:29.765Z,27.90
2017-12-02T14:26:04.888Z,23.93
2017-12-02T14:28:39.333Z,25.03
2017-12-02T14:31:14.545Z,23.63
2017-12-02T14:33:49.104Z,33.40
2017-12-02T14:36:23.593Z,27.57
2017-12-02T14:38:58.456Z,27.30
2017-12-02T14:41:33.584Z,26.77
2017-12-02T14:44:08.936Z,32.17
2017-12-02T14:46:43.840Z,22.63
2017-12-02T14:49:18.597Z,55.07
2017-12-02T14:51:53.649Z,28.67
2017-12-02T14:54:28.477Z,22.97
2017-12-02T14:57:03.778Z,22.87
2017-12-02T14:59:38.788Z,26.80
2017-12-02T15:02:13.489Z,24.17
2017-12-02T15:04:48.184Z,34.47
2017-12-02T15:07:23.024Z,52.73
2017-12-02T15:09:57.767Z,21.50
2017-12-02T15:12:32.413Z,23.70
2017-12-02T15:15:06.638Z,22.50
2017-12-02T15:17:41.932Z,24.50
2017-12-02T15:20:16.592Z,25.73
2017-12-02T15:22:51.637Z,24.03
2017-12-02T15:25:26.389Z,25.60
2017-12-02T15:28:01.218Z,23.10
2017-12-02T15:30:36.200Z,23.20
2017-12-02T15:33:10.977Z,28.23
2017-12-02T15:35:45.878Z,34.23
2017-12-02T15:38:21.100Z,29.27
2017-12-02T15:40:56.117Z,30.17
2017-12-02T15:43:31.016Z,33.43
2017-12-02T15:46:05.500Z,28.37
2017-12-02T15:48:39.952Z,30.63
2017-12-02T15:51:15.040Z,28.03
2017-12-02T15:53:49.961Z,34.93
2017-12-02T15:56:24.640Z,29.67
2017-12-02T15:58:59.300Z,34.03
2017-12-02T16:01:34.020Z,32.77
2017-12-02T16:04:09.029Z,31.00
2017-12-02T16:06:43.533Z,32.63
2017-12-02T16:09:18.336Z,26.00
2017-12-02T16:11:53.297Z,29.30
2017-12-02T16:14:27.797Z,29.90
2017-12-02T16:17:02.635Z,33.43
2017-12-02T16:19:37.196Z,31.03
2017-12-02T16:22:12.223Z,26.67
2017-12-02T16:24:46.929Z,32.13
2017-12-02T16:27:21.663Z,32.27
2017-12-02T16:29:56.959Z,30.50
2017-12-02T16:32:31.769Z,32.20
2017-12-02T16:35:06.593Z,30.53
2017-12-02T16:37:41.217Z,30.77
2017-12-02T16:40:15.977Z,31.70
2017-12-02T16:42:50.980Z,28.07
2017-12-02T16:45:26.233Z,25.93
2017-12-02T16:48:01.260Z,26.80
2017-12-02T16:50:36.326Z,22.20
2017-12-02T16:53:10.816Z,24.70
2017-12-02T16:55:44.941Z,24.20
2017-12-02T16:58:19.850Z,15.90
2017-12-02T17:00:54.925Z,17.20
2017-12-02T17:03:30.108Z,19.10
2017-12-02T17:06:04.630Z,21.40
2017-12-02T17:08:39.801Z,23.67
2017-12-02T17:11:14.914Z,17.53
2017-12-02T17:13:49.706Z,16.67
2017-12-02T17:16:24.933Z,15.37
2017-12-02T17:19:00.028Z,19.50
2017-12-02T17:21:34.707Z,26.23
2017-12-02T17:24:09.685Z,23.97
2017-12-02T17:26:44.937Z,21.33
2017-12-02T17:29:19.645Z,16.73
2017-12-02T17:31:54.118Z,14.33
2017-12-02T17:34:28.805Z,15.93
2017-12-02T17:37:03.731Z,25.43
2017-12-02T17:39:38.136Z,24.70
2017-12-02T17:42:12.754Z,18.67
2017-12-02T17:44:47.474Z,20.40
2017-12-02T17:47:22.743Z,17.03
2017-12-02T17:49:57.823Z,17.67
2017-12-02T17:52:32.552Z,19.80
2017-12-02T17:55:07.342Z,23.13
2017-12-02T17:57:42.628Z,17.37
2017-12-02T18:00:17.681Z,19.70
2017-12-02T18:02:52.215Z,12.03
2017-12-02T18:05:26.789Z,19.77
2017-12-02T18:08:02.025Z,22.47
2017-12-02T18:10:37.108Z,24.43
2017-12-02T18:13:12.349Z,16.40
2017-12-02T18:15:47.392Z,16.73
2017-12-02T18:18:22.361Z,21.63
2017-12-02T18:20:57.226Z,19.00
2017-12-02T18:23:32.344Z,21.73
2017-12-02T18:26:07.169Z,23.40
2017-12-02T18:28:42.083Z,15.57
2017-12-02T18:31:16.811Z,27.03
2017-12-02T18:33:51.684Z,25.37
2017-12-02T18:36:26.871Z,29.57
2017-12-02T18:39:01.935Z,23.03
2017-12-02T18:41:37.060Z,23.37
2017-12-02T18:44:12.220Z,24.50
2017-12-02T18:46:47.248Z,21.83
2017-12-02T18:49:22.425Z,22.83
2017-12-02T18:51:57.520Z,25.37
2017-12-02T18:54:32.451Z,22.13
2017-12-02T18:57:07.165Z,25.03
2017-12-02T18:59:42.424Z,25.23
2017-12-02T19:02:17.765Z,26.33
2017-12-02T19:04:52.911Z,21.53
2017-12-02T19:07:27.154Z,25.07
2017-12-02T19:10:01.664Z,29.00
2017-12-02T19:12:36.798Z,22.47
2017-12-02T19:15:12.120Z,29.57
2017-12-02T19:17:47.472Z,31.20
2017-12-02T19:20:22.298Z,29.70
2017-12-02T19:22:56.807Z,28.03
2017-12-02T19:25:32.160Z,23.73
2017-12-02T19:28:06.930Z,29.73
2017-12-02T19:30:42.236Z,28.50
2017-12-02T19:33:17.388Z,17.87
2017-12-02T19:35:52.306Z,22.53
2017-12-02T19:38:27.019Z,26.37
2017-12-02T19:41:02.072Z,31.93
2017-12-02T19:43:36.805Z,21.43
2017-12-02T19:46:12.055Z,30.83
2017-12-02T19:48:46.957Z,27.30
2017-12-02T19:51:21.841Z,28.10
2017-12-02T19:53:56.764Z,32.23
2017-12-02T19:56:31.593Z,33.00
2017-12-02T19:59:06.385Z,29.40
2017-12-02T20:01:41.631Z,24.80
2017-12-02T20:04:15.676Z,24.23
2017-12-02T20:06:50.616Z,32.10
2017-12-02T20:09:25.424Z,23.30
2017-12-02T20:12:00.460Z,31.43
2017-12-02T20:14:35.296Z,26.27
2017-12-02T20:17:10.325Z,30.63
2017-12-02T20:19:44.827Z,18.33
2017-12-02T20:22:19.469Z,25.77
2017-12-02T20:24:54.336Z,30.73
2017-12-02T20:27:29.652Z,26.30
2017-12-02T20:30:03.903Z,31.40
2017-12-02T20:32:39.096Z,32.60
2017-12-02T20:35:13.837Z,29.27
2017-12-02T20:37:48.981Z,42.20
2017-12-02T20:40:24.040Z,38.50
2017-12-02T20:42:58.808Z,43.13
2017-12-02T20:45:33.900Z,37.43
2017-12-02T20:48:08.986Z,39.70
2017-12-02T20:50:44.132Z,36.27
2017-12-02T20:53:18.944Z,38.83
2017-12-02T20:55:54.325Z,35.90
2017-12-02T20:58:29.232Z,40.77
2017-12-02T21:01:04.057Z,46.43
2017-12-02T21:03:38.857Z,33.83
2017-12-02T21:06:13.332Z,38.67
2017-12-02T21:08:48.281Z,44.20
2017-12-02T21:11:23.291Z,31.83
2017-12-02T21:13:58.046Z,44.80
2017-12-02T21:16:32.981Z,37.47
2017-12-02T21:19:07.806Z,42.10
2017-12-02T21:21:43.162Z,41.03
2017-12-02T21:24:17.607Z,41.37
2017-12-02T21:26:52.721Z,44.73
2017-12-02T21:29:27.311Z,44.30
2017-12-02T21:32:01.866Z,44.10
2017-12-02T21:34:37.394Z,49.43
2017-12-02T21:37:12.740Z,45.67
2017-12-02T21:39:47.896Z,48.10
2017-12-02T21:42:22.604Z,39.27
2017-12-02T21:44:57.446Z,43.57
2017-12-02T21:47:32.484Z,49.20
2017-12-02T21:50:07.511Z,58.70
2017-12-02T21:52:42.320Z,41.60
2017-12-02T21:55:17.372Z,59.50
2017-12-02T21:57:51.692Z,43.67
2017-12-02T22:00:26.201Z,35.30
2017-12-02T22:03:01.377Z,46.13
2017-12-02T22:05:36.405Z,33.00
2017-12-02T22:08:11.312Z,48.43
2017-12-02T22:10:46.328Z,47.53
2017-12-02T22:13:21.012Z,42.93
2017-12-02T22:15:55.504Z,49.83
2017-12-02T22:18:30.159Z,44.27
2017-12-02T22:21:05.279Z,51.43
2017-12-02T22:23:40.308Z,39.33
2017-12-02T22:26:15.257Z,49.23
2017-12-02T22:28:49.792Z,47.43
2017-12-02T22:31:25.098Z,46.83
2017-12-02T22:34:00.344Z,38.97
2017-12-02T22:36:35.472Z,47.23
2017-12-02T22:39:10.596Z,37.90
2017-12-02T22:41:45.344Z,45.10
2017-12-02T22:44:19.754Z,39.90
2017-12-02T22:46:54.619Z,87.03
2017-12-02T22:49:30.080Z,45.80
2017-12-02T22:52:04.874Z,46.17
2017-12-02T22:54:40.120Z,53.00
2017-12-02T22:57:14.251Z,49.80
2017-12-02T22:59:49.603Z,38.70
2017-12-02T23:02:24.400Z,53.20
2017-12-02T23:04:59.517Z,62.10
2017-12-02T23:07:34.266Z,46.83
2017-12-02T23:10:09.088Z,44.57
2017-12-02T23:12:44.086Z,42.70
2017-12-02T23:15:18.620Z,43.77
2017-12-02T23:17:53.433Z,53.77
2017-12-02T23:20:28.349Z,40.70
2017-12-02T23:23:03.172Z,49.60
2017-12-02T23:25:37.343Z,47.63
2017-12-02T23:28:12.633Z,50.60
2017-12-02T23:30:47.755Z,46.10
2017-12-02T23:33:22.933Z,44.77
2017-12-02T23:35:58.064Z,45.47
2017-12-02T23:38:32.996Z,44.43
2017-12-02T23:41:07.863Z,51.40
2017-12-02T23:43:42.693Z,48.13
2017-12-02T23:46:17.589Z,52.67
2017-12-02T23:48:52.716Z,43.77
2017-12-02T23:51:27.637Z,46.57
2017-12-02T23:54:02.884Z,52.30
2017-12-02T23:56:38.120Z,33.40
2017-12-02T23:59:13.228Z,30.23
